createdAt,value
2019-03-27T00:00:15.696Z,100803.83
2019-03-27T00:02:44.481Z,100805.14
2019-03-27T00:05:12.974Z,100811.69
2019-03-27T00:07:41.357Z,100811.86
2019-03-27T00:10:11.263Z,100808.56
2019-03-27T00:12:40.310Z,100801.98
2019-03-27T00:15:13.755Z,100804.43
2019-03-27T00:17:42.627Z,100803.95
2019-03-27T00:20:13.116Z,100803.61
2019-03-27T00:22:41.562Z,100805.39
2019-03-27T00:25:10.854Z,100802.61
2019-03-27T00:27:39.513Z,100799.45
2019-03-27T00:30:09.370Z,100793.37
2019-03-27T00:32:38.327Z,100796.65
2019-03-27T00:35:08.557Z,100792.14
2019-03-27T00:37:37.372Z,100790.63
2019-03-27T00:40:06.688Z,100788.13
2019-03-27T00:42:35.795Z,100785.72
2019-03-27T00:45:08.188Z,100781.27
2019-03-27T00:47:36.634Z,100778.64
2019-03-27T00:50:08.151Z,100783.19
2019-03-27T00:52:36.606Z,100778.39
2019-03-27T00:55:07.888Z,100780.61
2019-03-27T00:57:36.308Z,100777.41
2019-03-27T01:00:19.994Z,100771.12
2019-03-27T01:02:48.449Z,100777.29
2019-03-27T01:05:16.870Z,100773.39
2019-03-27T01:07:45.246Z,100779.30
2019-03-27T01:10:13.933Z,100777.70
2019-03-27T01:12:42.352Z,100769.08
2019-03-27T01:15:10.794Z,100773.85
2019-03-27T01:17:39.138Z,100769.77
2019-03-27T01:20:07.653Z,100773.14
2019-03-27T01:22:36.471Z,100779.50
2019-03-27T01:25:06.292Z,100775.22
2019-03-27T01:27:35.829Z,100777.19
2019-03-27T01:30:05.129Z,100774.63
2019-03-27T01:32:33.474Z,100780.98
2019-03-27T01:35:01.931Z,100777.21
2019-03-27T01:37:30.261Z,100779.17
2019-03-27T01:39:58.641Z,100775.66
2019-03-27T01:42:26.982Z,100767.45
2019-03-27T01:44:55.366Z,100759.09
2019-03-27T01:47:23.710Z,100763.49
2019-03-27T01:49:52.084Z,100767.91
2019-03-27T01:52:20.432Z,100756.41
2019-03-27T01:54:48.840Z,100760.75
2019-03-27T01:57:17.229Z,100761.25
2019-03-27T01:59:46.681Z,100765.91
2019-03-27T02:02:15.102Z,100758.27
2019-03-27T02:04:43.544Z,100757.72
2019-03-27T02:07:11.891Z,100758.95
2019-03-27T02:09:40.264Z,100761.06
2019-03-27T02:12:08.713Z,100755.61
2019-03-27T02:14:37.095Z,100765.75
2019-03-27T02:17:05.576Z,100770.21
2019-03-27T02:19:33.953Z,100756.26
2019-03-27T02:22:02.848Z,100759.53
2019-03-27T02:24:31.224Z,100750.83
2019-03-27T02:26:59.639Z,100755.02
2019-03-27T02:29:28.080Z,100768.64
2019-03-27T02:31:56.437Z,100766.56
2019-03-27T02:34:24.819Z,100772.17
2019-03-27T02:36:53.159Z,100761.33
2019-03-27T02:39:21.546Z,100759.91
2019-03-27T02:41:49.893Z,100754.91
2019-03-27T02:44:18.270Z,100765.02
2019-03-27T02:46:46.610Z,100761.53
2019-03-27T02:49:14.990Z,100766.30
2019-03-27T02:51:43.407Z,100759.02
2019-03-27T02:54:11.858Z,100756.72
2019-03-27T02:56:40.270Z,100767.95
2019-03-27T02:59:08.656Z,100763.38
2019-03-27T03:01:37.066Z,100764.37
2019-03-27T03:04:05.527Z,100761.12
2019-03-27T03:06:34.002Z,100761.05
2019-03-27T03:09:02.376Z,100764.81
2019-03-27T03:11:30.724Z,100761.92
2019-03-27T03:13:59.107Z,100762.34
2019-03-27T03:16:41.380Z,100762.66
2019-03-27T03:18:57.619Z,100765.31
2019-03-27T03:21:25.958Z,100769.91
2019-03-27T03:23:54.439Z,100767.41
2019-03-27T03:26:22.770Z,100766.13
2019-03-27T03:28:51.147Z,100771.51
2019-03-27T03:31:19.530Z,100770.00
2019-03-27T03:33:47.903Z,100765.64
2019-03-27T03:36:16.250Z,100765.64
2019-03-27T03:38:44.631Z,100764.38
2019-03-27T03:41:12.980Z,100766.36
2019-03-27T03:43:41.428Z,100764.53
2019-03-27T03:46:09.779Z,100767.20
2019-03-27T03:48:38.151Z,100761.52
2019-03-27T03:51:06.575Z,100761.20
2019-03-27T03:53:35.635Z,100759.95
2019-03-27T03:56:04.420Z,100766.63
2019-03-27T03:58:36.048Z,100768.36
2019-03-27T04:01:04.569Z,100777.70
2019-03-27T04:03:35.434Z,100776.59
2019-03-27T04:06:03.881Z,100781.83
2019-03-27T04:08:32.229Z,100781.46
2019-03-27T04:11:00.642Z,100779.01
2019-03-27T04:13:29.054Z,100785.41
2019-03-27T04:15:57.496Z,100786.77
2019-03-27T04:18:25.851Z,100782.25
2019-03-27T04:20:54.235Z,100778.12
2019-03-27T04:23:22.725Z,100776.02
2019-03-27T04:26:09.250Z,100779.87
2019-03-27T04:28:21.269Z,100787.61
2019-03-27T04:30:49.638Z,100793.64
2019-03-27T04:33:18.023Z,100796.27
2019-03-27T04:35:46.372Z,100798.34
2019-03-27T04:38:14.708Z,100804.11
2019-03-27T04:40:43.087Z,100796.28
2019-03-27T04:43:11.579Z,100802.44
2019-03-27T04:45:40.129Z,100804.06
2019-03-27T04:48:08.459Z,100807.44
2019-03-27T04:50:36.914Z,100811.14
2019-03-27T04:53:06.755Z,100806.80
2019-03-27T04:55:35.136Z,100806.56
2019-03-27T04:58:03.725Z,100812.45
2019-03-27T05:00:32.473Z,100805.84
2019-03-27T05:03:00.879Z,100802.52
2019-03-27T05:05:29.259Z,100801.50
2019-03-27T05:07:57.741Z,100806.37
2019-03-27T05:10:26.439Z,100815.70
2019-03-27T05:12:54.812Z,100813.38
2019-03-27T05:15:23.189Z,100820.54
2019-03-27T05:17:51.538Z,100817.39
2019-03-27T05:20:20.110Z,100821.75
2019-03-27T05:22:48.460Z,100823.63
2019-03-27T05:25:17.077Z,100826.31
2019-03-27T05:27:45.424Z,100823.52
2019-03-27T05:30:15.884Z,100827.42
2019-03-27T05:32:44.482Z,100832.48
2019-03-27T05:35:13.127Z,100828.56
2019-03-27T05:37:41.612Z,100824.61
2019-03-27T05:40:10.131Z,100824.56
2019-03-27T05:42:38.633Z,100831.31
2019-03-27T05:45:07.665Z,100829.86
2019-03-27T05:47:36.484Z,100832.34
2019-03-27T05:50:06.674Z,100836.24
2019-03-27T05:52:36.193Z,100842.86
2019-03-27T05:55:05.331Z,100846.20
2019-03-27T05:57:33.745Z,100847.66
2019-03-27T06:00:02.468Z,100849.12
2019-03-27T06:02:30.812Z,100853.72
2019-03-27T06:04:59.260Z,100853.41
2019-03-27T06:07:27.611Z,100850.00
2019-03-27T06:09:56.169Z,100853.98
2019-03-27T06:12:24.512Z,100848.56
2019-03-27T06:14:52.893Z,100852.74
2019-03-27T06:17:21.249Z,100859.38
2019-03-27T06:19:49.619Z,100854.13
2019-03-27T06:22:18.037Z,100859.17
2019-03-27T06:24:46.423Z,100861.98
2019-03-27T06:27:14.771Z,100862.12
2019-03-27T06:29:43.155Z,100861.45
2019-03-27T06:32:11.552Z,100866.45
2019-03-27T06:34:39.887Z,100866.84
2019-03-27T06:37:08.239Z,100864.38
2019-03-27T06:39:36.622Z,100865.39
2019-03-27T06:42:05.030Z,100865.82
2019-03-27T06:44:33.413Z,100861.48
2019-03-27T06:47:01.781Z,100865.23
2019-03-27T06:49:30.158Z,100862.03
2019-03-27T06:51:58.573Z,100857.49
2019-03-27T06:54:26.959Z,100861.48
2019-03-27T06:56:55.306Z,100854.29
2019-03-27T06:59:23.688Z,100863.80
2019-03-27T07:01:52.035Z,100863.63
2019-03-27T07:04:20.487Z,100861.92
2019-03-27T07:06:48.839Z,100864.88
2019-03-27T07:09:17.195Z,100865.16
2019-03-27T07:11:45.579Z,100862.97
2019-03-27T07:14:13.933Z,100870.53
2019-03-27T07:16:42.316Z,100866.05
2019-03-27T07:19:10.661Z,100869.45
2019-03-27T07:21:39.120Z,100875.45
2019-03-27T07:24:07.471Z,100880.62
2019-03-27T07:26:35.858Z,100882.13
2019-03-27T07:29:04.274Z,100890.23
2019-03-27T07:31:32.661Z,100887.41
2019-03-27T07:34:01.016Z,100895.60
2019-03-27T07:36:29.397Z,100893.16
2019-03-27T07:39:10.460Z,100896.65
2019-03-27T07:41:27.922Z,100898.34
2019-03-27T07:43:56.344Z,100902.36
2019-03-27T07:46:24.730Z,100907.95
2019-03-27T07:48:54.344Z,100905.55
2019-03-27T07:51:23.115Z,100911.45
2019-03-27T07:53:51.472Z,100912.70
2019-03-27T07:56:19.848Z,100908.35
2019-03-27T07:58:48.200Z,100909.70
2019-03-27T08:01:16.595Z,100915.59
2019-03-27T08:03:44.938Z,100916.13
2019-03-27T08:06:13.394Z,100916.13
2019-03-27T08:08:41.818Z,100908.48
2019-03-27T08:11:13.141Z,100909.61
2019-03-27T08:13:41.547Z,100908.23
2019-03-27T08:16:09.926Z,100904.98
2019-03-27T08:18:38.344Z,100905.66
2019-03-27T08:21:06.731Z,100912.85
2019-03-27T08:23:35.081Z,100914.94
2019-03-27T08:26:03.466Z,100917.09
2019-03-27T08:28:31.887Z,100906.09
2019-03-27T08:31:00.278Z,100910.79
2019-03-27T08:33:28.697Z,100911.59
2019-03-27T08:35:57.079Z,100910.32
2019-03-27T08:38:25.430Z,100913.09
2019-03-27T08:40:53.809Z,100915.52
2019-03-27T08:43:25.466Z,100919.74
2019-03-27T08:45:52.269Z,100915.23
2019-03-27T08:48:20.620Z,100920.35
2019-03-27T08:50:49.080Z,100913.69
2019-03-27T08:53:17.426Z,100922.34
2019-03-27T08:55:45.887Z,100927.56
2019-03-27T08:58:14.234Z,100921.78
2019-03-27T09:00:53.756Z,100923.72
2019-03-27T09:03:22.394Z,100926.09
2019-03-27T09:05:50.882Z,100922.39
2019-03-27T09:08:19.369Z,100921.48
2019-03-27T09:10:47.886Z,100922.70
2019-03-27T09:13:16.307Z,100920.48
2019-03-27T09:15:44.789Z,100912.91
2019-03-27T09:18:15.505Z,100916.04
2019-03-27T09:20:43.317Z,100914.58
2019-03-27T09:23:11.669Z,100913.36
2019-03-27T09:25:40.127Z,100909.27
2019-03-27T09:28:08.552Z,100918.87
2019-03-27T09:30:36.940Z,100910.77
2019-03-27T09:33:05.363Z,100914.52
2019-03-27T09:35:33.756Z,100912.17
2019-03-27T09:38:02.172Z,100910.84
2019-03-27T09:40:30.632Z,100920.17
2019-03-27T09:42:59.146Z,100916.81
2019-03-27T09:45:27.591Z,100917.92
2019-03-27T09:47:56.013Z,100928.27
2019-03-27T09:50:24.475Z,100923.91
2019-03-27T09:52:52.898Z,100920.13
2019-03-27T09:55:21.279Z,100922.30
2019-03-27T09:57:49.644Z,100926.94
2019-03-27T10:00:21.210Z,100920.67
2019-03-27T10:02:49.627Z,100915.69
2019-03-27T10:05:18.017Z,100919.69
2019-03-27T10:07:46.438Z,100911.06
2019-03-27T10:10:14.959Z,100905.23
2019-03-27T10:12:43.314Z,100904.02
2019-03-27T10:15:11.954Z,100900.44
2019-03-27T10:17:40.299Z,100906.44
2019-03-27T10:20:08.862Z,100912.16
2019-03-27T10:22:37.258Z,100899.13
2019-03-27T10:25:08.866Z,100905.73
2019-03-27T10:27:37.302Z,100904.52
2019-03-27T10:30:07.391Z,100912.91
2019-03-27T10:32:35.750Z,100914.30
2019-03-27T10:35:05.430Z,100904.69
2019-03-27T10:37:33.814Z,100912.15
2019-03-27T10:40:02.243Z,100917.52
2019-03-27T10:42:31.163Z,100908.31
2019-03-27T10:45:03.170Z,100913.12
2019-03-27T10:47:31.700Z,100916.26
2019-03-27T10:50:02.380Z,100918.89
2019-03-27T10:52:31.416Z,100915.98
2019-03-27T10:55:00.399Z,100912.66
2019-03-27T10:57:29.584Z,100914.04
2019-03-27T10:59:58.457Z,100912.08
2019-03-27T11:02:27.181Z,100921.84
2019-03-27T11:04:55.601Z,100915.50
2019-03-27T11:07:24.062Z,100915.67
2019-03-27T11:09:52.728Z,100907.23
2019-03-27T11:12:21.121Z,100915.91
2019-03-27T11:14:49.479Z,100914.07
2019-03-27T11:17:17.857Z,100917.16
2019-03-27T11:19:46.213Z,100916.92
2019-03-27T11:22:14.605Z,100915.92
2019-03-27T11:24:42.957Z,100914.87
2019-03-27T11:27:11.348Z,100917.70
2019-03-27T11:29:39.701Z,100911.52
2019-03-27T11:32:08.101Z,100911.00
2019-03-27T11:34:36.442Z,100914.20
2019-03-27T11:37:04.917Z,100910.95
2019-03-27T11:39:33.578Z,100914.20
2019-03-27T11:42:02.099Z,100916.02
2019-03-27T11:44:30.458Z,100914.95
2019-03-27T11:46:58.913Z,100912.67
2019-03-27T11:49:27.497Z,100916.53
2019-03-27T11:51:55.837Z,100917.73
2019-03-27T11:54:24.185Z,100917.00
2019-03-27T11:56:52.645Z,100916.88
2019-03-27T11:59:21.071Z,100913.90
2019-03-27T12:01:49.451Z,100916.82
2019-03-27T12:04:17.809Z,100911.30
2019-03-27T12:06:46.199Z,100913.37
2019-03-27T12:09:14.623Z,100910.57
2019-03-27T12:11:43.006Z,100909.98
2019-03-27T12:14:12.369Z,100907.55
2019-03-27T12:16:40.927Z,100903.32
2019-03-27T12:19:09.429Z,100906.14
2019-03-27T12:21:37.814Z,100899.72
2019-03-27T12:24:06.309Z,100904.70
2019-03-27T12:26:34.698Z,100905.36
2019-03-27T12:29:03.127Z,100904.77
2019-03-27T12:31:31.815Z,100899.97
2019-03-27T12:34:00.161Z,100903.79
2019-03-27T12:36:28.623Z,100903.26
2019-03-27T12:38:56.972Z,100895.09
2019-03-27T12:41:25.465Z,100895.16
2019-03-27T12:43:53.789Z,100894.17
2019-03-27T12:46:22.173Z,100898.39
2019-03-27T12:48:50.532Z,100904.77
2019-03-27T12:51:19.343Z,100900.50
2019-03-27T12:53:47.900Z,100896.60
2019-03-27T12:56:16.427Z,100889.41
2019-03-27T12:58:44.782Z,100891.15
2019-03-27T13:01:13.317Z,100887.80
2019-03-27T13:03:44.447Z,100889.44
2019-03-27T13:06:11.933Z,100882.47
2019-03-27T13:08:40.398Z,100878.77
2019-03-27T13:11:08.829Z,100872.72
2019-03-27T13:13:37.482Z,100874.60
2019-03-27T13:16:05.974Z,100869.94
2019-03-27T13:18:34.816Z,100871.19
2019-03-27T13:21:03.753Z,100866.05
2019-03-27T13:23:33.728Z,100863.08
2019-03-27T13:26:02.083Z,100874.15
2019-03-27T13:28:30.464Z,100871.52
2019-03-27T13:30:58.901Z,100868.75
2019-03-27T13:35:01.919Z,100869.56
2019-03-27T13:37:30.299Z,100865.30
2019-03-27T13:40:00.078Z,100866.78
2019-03-27T13:42:28.795Z,100866.02
2019-03-27T13:44:57.158Z,100863.87
2019-03-27T13:47:25.545Z,100860.00
2019-03-27T13:49:53.914Z,100859.56
2019-03-27T13:52:25.411Z,100858.36
2019-03-27T13:54:53.781Z,100866.02
2019-03-27T13:57:22.171Z,100863.87
2019-03-27T13:59:50.596Z,100863.28
2019-03-27T14:02:19.050Z,100856.61
2019-03-27T14:04:47.476Z,100853.91
2019-03-27T14:07:15.873Z,100853.20
2019-03-27T14:09:44.220Z,100851.88
2019-03-27T14:12:12.679Z,100846.31
2019-03-27T14:14:50.343Z,100852.39
2019-03-27T14:17:11.146Z,100851.38
2019-03-27T14:19:39.505Z,100845.16
2019-03-27T14:22:07.899Z,100857.28
2019-03-27T14:24:36.256Z,100850.47
2019-03-27T14:27:04.714Z,100851.78
2019-03-27T14:29:33.067Z,100854.00
2019-03-27T14:32:01.454Z,100845.80
2019-03-27T14:34:29.816Z,100842.38
2019-03-27T14:36:58.199Z,100844.34
2019-03-27T14:39:26.546Z,100845.11
2019-03-27T14:41:54.995Z,100840.42
2019-03-27T14:44:23.357Z,100837.52
2019-03-27T14:46:51.820Z,100833.58
2019-03-27T14:49:20.240Z,100838.95
2019-03-27T14:51:48.693Z,100839.73
2019-03-27T14:54:17.039Z,100836.72
2019-03-27T14:56:45.397Z,100830.20
2019-03-27T14:59:13.788Z,100840.13
2019-03-27T15:01:42.134Z,100831.01
2019-03-27T15:04:10.658Z,100834.59
2019-03-27T15:06:39.007Z,100837.42
2019-03-27T15:09:08.706Z,100834.45
2019-03-27T15:11:37.130Z,100833.06
2019-03-27T15:14:05.904Z,100835.62
2019-03-27T15:16:34.955Z,100833.73
2019-03-27T15:19:04.152Z,100837.05
2019-03-27T15:21:32.583Z,100838.73
2019-03-27T15:24:02.982Z,100839.60
2019-03-27T15:26:32.009Z,100845.97
2019-03-27T15:29:00.845Z,100842.59
2019-03-27T15:31:31.030Z,100837.75
2019-03-27T15:33:59.789Z,100838.74
2019-03-27T15:36:29.976Z,100842.52
2019-03-27T15:39:00.479Z,100843.70
2019-03-27T15:41:30.464Z,100831.50
2019-03-27T15:43:59.550Z,100838.58
2019-03-27T15:46:28.469Z,100837.42
2019-03-27T15:48:57.274Z,100834.63
2019-03-27T15:51:26.442Z,100828.95
2019-03-27T15:53:55.962Z,100827.03
2019-03-27T15:56:25.030Z,100824.59
2019-03-27T15:58:56.155Z,100827.42
2019-03-27T16:01:25.657Z,100827.02
2019-03-27T16:03:56.515Z,100826.48
2019-03-27T16:06:25.279Z,100825.30
2019-03-27T16:08:54.357Z,100826.84
2019-03-27T16:11:23.662Z,100834.53
2019-03-27T16:13:53.988Z,100825.68
2019-03-27T16:16:22.916Z,100826.08
2019-03-27T16:18:53.106Z,100823.52
2019-03-27T16:21:22.094Z,100824.97
2019-03-27T16:24:05.524Z,100827.53
2019-03-27T16:26:24.477Z,100823.99
2019-03-27T16:28:53.092Z,100828.19
2019-03-27T16:31:24.238Z,100834.28
2019-03-27T16:33:56.174Z,100838.91
2019-03-27T16:36:28.584Z,100839.66
2019-03-27T16:39:00.604Z,100840.80
2019-03-27T16:41:29.736Z,100838.72
2019-03-27T16:43:58.763Z,100841.69
2019-03-27T16:46:29.395Z,100844.83
2019-03-27T16:48:57.851Z,100846.75
2019-03-27T16:51:26.340Z,100847.46
2019-03-27T16:54:03.945Z,100837.87
2019-03-27T16:56:31.849Z,100844.45
2019-03-27T16:59:00.228Z,100844.63
2019-03-27T17:01:29.053Z,100836.89
2019-03-27T17:03:57.441Z,100846.72
2019-03-27T17:06:25.789Z,100844.93
2019-03-27T17:08:54.180Z,100839.73
2019-03-27T17:11:22.533Z,100846.25
2019-03-27T17:13:50.913Z,100845.00
2019-03-27T17:16:19.264Z,100846.20
2019-03-27T17:18:47.647Z,100841.61
2019-03-27T17:21:16.003Z,100846.54
2019-03-27T17:23:44.456Z,100849.47
2019-03-27T17:26:12.798Z,100859.74
2019-03-27T17:28:41.252Z,100856.52
2019-03-27T17:31:09.599Z,100850.95
2019-03-27T17:33:37.978Z,100862.27
2019-03-27T17:36:06.494Z,100852.80
2019-03-27T17:38:34.940Z,100861.77
2019-03-27T17:41:03.301Z,100860.58
2019-03-27T17:43:31.696Z,100862.20
2019-03-27T17:46:00.044Z,100865.95
2019-03-27T17:48:28.430Z,100863.31
2019-03-27T17:50:56.777Z,100864.47
2019-03-27T17:53:31.589Z,100864.21
2019-03-27T17:55:55.311Z,100866.17
2019-03-27T17:58:23.702Z,100865.36
2019-03-27T18:00:52.866Z,100873.28
2019-03-27T18:03:21.251Z,100876.18
2019-03-27T18:05:50.483Z,100876.23
2019-03-27T18:08:21.038Z,100879.52
2019-03-27T18:10:50.306Z,100876.88
2019-03-27T18:13:18.846Z,100876.27
2019-03-27T18:15:47.228Z,100879.41
2019-03-27T18:18:15.750Z,100876.16
2019-03-27T18:20:44.652Z,100875.37
2019-03-27T18:23:13.106Z,100883.36
2019-03-27T18:25:41.459Z,100888.16
2019-03-27T18:28:10.012Z,100883.04
2019-03-27T18:30:38.446Z,100893.55
2019-03-27T18:33:06.973Z,100892.98
2019-03-27T18:35:35.389Z,100889.03
2019-03-27T18:38:03.944Z,100898.66
2019-03-27T18:40:32.380Z,100898.03
2019-03-27T18:43:00.841Z,100901.13
2019-03-27T18:45:29.556Z,100910.31
2019-03-27T18:47:57.944Z,100911.05
2019-03-27T18:50:26.431Z,100908.11
2019-03-27T18:52:54.813Z,100907.27
2019-03-27T18:55:26.812Z,100909.94
2019-03-27T18:58:00.000Z,100909.84
2019-03-27T19:00:23.732Z,100915.02
2019-03-27T19:02:52.129Z,100921.73
2019-03-27T19:05:20.593Z,100920.27
2019-03-27T19:07:48.946Z,100920.46
2019-03-27T19:10:17.404Z,100927.55
2019-03-27T19:12:45.835Z,100929.90
2019-03-27T19:15:14.379Z,100929.25
2019-03-27T19:17:42.733Z,100936.64
2019-03-27T19:20:11.254Z,100936.23
2019-03-27T19:22:39.769Z,100930.42
2019-03-27T19:25:08.785Z,100932.20
2019-03-27T19:27:37.761Z,100937.73
2019-03-27T19:30:07.870Z,100938.95
2019-03-27T19:32:36.217Z,100937.03
2019-03-27T19:35:05.606Z,100939.75
2019-03-27T19:37:34.248Z,100940.58
2019-03-27T19:40:02.622Z,100937.05
2019-03-27T19:42:31.120Z,100947.38
2019-03-27T19:44:59.505Z,100943.41
2019-03-27T19:47:27.872Z,100946.03
2019-03-27T19:49:56.255Z,100951.78
2019-03-27T19:52:24.744Z,100948.11
2019-03-27T19:54:53.125Z,100951.53
2019-03-27T19:57:21.744Z,100957.27
2019-03-27T19:59:50.286Z,100955.97
2019-03-27T20:02:18.713Z,100959.85
2019-03-27T20:04:47.101Z,100960.31
2019-03-27T20:07:15.529Z,100966.56
2019-03-27T20:09:43.967Z,100965.03
2019-03-27T20:12:12.924Z,100964.55
2019-03-27T20:14:42.582Z,100965.33
2019-03-27T20:17:11.140Z,100968.98
2019-03-27T20:19:39.590Z,100974.87
2019-03-27T20:22:08.351Z,100971.64
2019-03-27T20:24:41.207Z,100977.45
2019-03-27T20:27:07.421Z,100980.15
2019-03-27T20:29:35.870Z,100986.08
2019-03-27T20:32:04.470Z,100987.92
2019-03-27T20:34:35.547Z,100987.96
2019-03-27T20:37:03.903Z,100988.89
2019-03-27T20:39:32.288Z,100986.58
2019-03-27T20:42:00.709Z,100990.88
2019-03-27T20:44:29.153Z,100985.95
2019-03-27T20:46:57.771Z,100983.20
2019-03-27T20:49:26.278Z,100983.67
2019-03-27T20:51:55.009Z,100978.19
2019-03-27T20:54:23.674Z,100983.67
2019-03-27T20:56:52.098Z,100980.06
2019-03-27T20:59:20.618Z,100981.88
2019-03-27T21:01:49.035Z,100976.20
2019-03-27T21:04:17.426Z,100980.70
2019-03-27T21:06:46.097Z,100978.55
2019-03-27T21:09:15.236Z,100979.04
2019-03-27T21:11:43.732Z,100985.09
2019-03-27T21:14:12.258Z,100984.48
2019-03-27T21:16:40.678Z,100988.94
2019-03-27T21:19:09.067Z,100987.24
2019-03-27T21:21:37.413Z,100989.02
2019-03-27T21:24:05.938Z,100990.00
2019-03-27T21:26:34.311Z,100991.69
2019-03-27T21:29:02.766Z,100994.91
2019-03-27T21:31:31.205Z,100992.08
2019-03-27T21:33:59.567Z,100993.69
2019-03-27T21:36:27.917Z,100998.11
2019-03-27T21:38:56.299Z,100996.44
2019-03-27T21:41:24.720Z,100997.97
2019-03-27T21:43:53.105Z,100995.98
2019-03-27T21:46:21.461Z,101003.04
2019-03-27T21:48:49.922Z,101006.38
2019-03-27T21:51:21.096Z,101006.41
2019-03-27T21:53:50.848Z,101010.81
2019-03-27T21:56:19.804Z,101015.13
2019-03-27T21:58:48.510Z,101012.80
2019-03-27T22:01:17.307Z,101021.15
2019-03-27T22:03:47.469Z,101020.33
2019-03-27T22:06:16.058Z,101024.52
2019-03-27T22:08:44.535Z,101021.20
2019-03-27T22:11:13.416Z,101019.63
2019-03-27T22:13:42.669Z,101015.28
2019-03-27T22:16:11.517Z,101018.27
2019-03-27T22:18:39.874Z,101028.22
2019-03-27T22:21:08.405Z,101029.14
2019-03-27T22:23:36.973Z,101032.94
2019-03-27T22:26:05.563Z,101035.02
2019-03-27T22:28:33.911Z,101036.17
2019-03-27T22:31:02.567Z,101041.69
2019-03-27T22:33:31.211Z,101040.56
2019-03-27T22:36:00.018Z,101041.14
2019-03-27T22:38:29.946Z,101040.27
2019-03-27T22:40:58.643Z,101037.85
2019-03-27T22:43:27.065Z,101037.48
2019-03-27T22:45:57.124Z,101041.06
2019-03-27T22:48:25.675Z,101044.38
2019-03-27T22:50:54.222Z,101043.74
2019-03-27T22:53:22.815Z,101038.05
2019-03-27T22:55:51.568Z,101045.14
2019-03-27T22:58:19.843Z,101043.50
2019-03-27T23:00:53.700Z,101041.19
2019-03-27T23:03:22.439Z,101038.81
2019-03-27T23:05:50.890Z,101037.42
2019-03-27T23:08:19.242Z,101031.47
2019-03-27T23:10:47.694Z,101038.96
2019-03-27T23:13:16.235Z,101037.56
2019-03-27T23:15:46.373Z,101033.14
2019-03-27T23:18:15.192Z,101037.33
2019-03-27T23:20:43.647Z,101040.30
2019-03-27T23:23:12.399Z,101037.96
2019-03-27T23:25:41.090Z,101036.80
2019-03-27T23:28:09.580Z,101037.14
2019-03-27T23:30:38.469Z,101034.70
2019-03-27T23:33:06.960Z,101032.23
2019-03-27T23:35:35.748Z,101038.95
2019-03-27T23:38:04.828Z,101039.51
2019-03-27T23:40:33.714Z,101036.66
2019-03-27T23:43:02.173Z,101029.45
2019-03-27T23:45:30.821Z,101026.89
2019-03-27T23:47:59.241Z,101031.82
2019-03-27T23:50:27.728Z,101033.75
2019-03-27T23:52:56.331Z,101026.84
2019-03-27T23:55:25.074Z,101029.41
2019-03-27T23:57:53.428Z,101029.94
